Time;durP1;ratioP1;P1;durP2;ratioP2;P2;SDS_P1;SDS_P2;PMS_P1;PMS_P2;Temp;Humidity;BMP_temperature;BMP_pressure;BME280_temperature;BME280_humidity;BME280_pressure;Samples;Min_cycle;Max_cycle;Signal;HPM_P1;HPM_P2
2021/07/28 00:01:44;;;;;;;7.07;4.20;;;;;;;;;;4943427;29;20142;-58
2021/07/28 00:04:13;;;;;;;8.85;4.38;;;;;;;;;;4965969;28;20590;-60
2021/07/28 00:06:41;;;;;;;9.25;4.00;;;;;;;;;;4968568;28;20153;-58
2021/07/28 00:09:09;;;;;;;7.47;4.57;;;;;;;;;;4973599;28;20141;-59
2021/07/28 00:11:39;;;;;;;7.68;4.30;;;;;;;;;;4964974;28;20139;-59
2021/07/28 00:14:07;;;;;;;5.35;3.60;;;;;;;;;;4973546;28;20486;-59
2021/07/28 00:16:36;;;;;;;5.85;3.97;;;;;;;;;;4971802;28;20042;-58
2021/07/28 00:19:09;;;;;;;5.93;4.20;;;;;;;;;;4958901;28;20057;-58
2021/07/28 00:24:24;;;;;;;5.13;3.85;;;;;;;;;;4969420;28;20138;-59
2021/07/28 00:26:53;;;;;;;8.52;4.57;;;;;;;;;;4967274;28;20457;-59
2021/07/28 00:29:22;;;;;;;5.30;3.40;;;;;;;;;;4966402;28;20130;-58
2021/07/28 00:31:50;;;;;;;6.32;4.28;;;;;;;;;;4962220;28;20575;-58
2021/07/28 00:34:18;;;;;;;8.50;4.82;;;;;;;;;;4970275;28;20054;-59
2021/07/28 00:36:46;;;;;;;7.82;4.90;;;;;;;;;;4970298;28;20126;-58
2021/07/28 00:39:15;;;;;;;6.45;4.13;;;;;;;;;;4962036;28;20443;-58
2021/07/28 00:41:43;;;;;;;6.45;4.10;;;;;;;;;;4968492;28;20134;-59
2021/07/28 00:44:13;;;;;;;7.40;4.18;;;;;;;;;;4961897;28;20140;-59
2021/07/28 00:46:42;;;;;;;7.78;4.75;;;;;;;;;;4967505;28;20169;-58
2021/07/28 00:49:10;;;;;;;7.05;3.67;;;;;;;;;;4971897;28;20519;-59
2021/07/28 00:51:38;;;;;;;6.55;3.40;;;;;;;;;;4961470;28;20057;-59
2021/07/28 00:54:07;;;;;;;7.00;3.55;;;;;;;;;;4962802;28;20082;-58
2021/07/28 00:56:36;;;;;;;7.55;4.35;;;;;;;;;;4966179;28;20122;-59
2021/07/28 00:59:05;;;;;;;5.50;3.22;;;;;;;;;;4971682;28;20085;-58
2021/07/28 01:01:36;;;;;;;7.07;3.58;;;;;;;;;;4960249;28;20046;-59
2021/07/28 01:04:05;;;;;;;8.85;4.28;;;;;;;;;;4995205;23;20060;-93
2021/07/28 01:06:33;;;;;;;6.00;3.42;;;;;;;;;;4998145;28;20066;-92
2021/07/28 01:09:02;;;;;;;5.47;3.33;;;;;;;;;;4997468;28;20050;-92
2021/07/28 01:11:30;;;;;;;6.78;2.95;;;;;;;;;;4998016;28;20081;-91
2021/07/28 01:13:58;;;;;;;4.78;2.83;;;;;;;;;;4997829;28;20451;-92
2021/07/28 01:16:28;;;;;;;4.70;3.10;;;;;;;;;;4997594;28;20061;-92
2021/07/28 01:18:59;;;;;;;6.03;3.08;;;;;;;;;;4998143;28;20401;-92
2021/07/28 01:21:27;;;;;;;6.22;3.70;;;;;;;;;;4998502;28;20074;-92
2021/07/28 01:23:57;;;;;;;7.55;3.72;;;;;;;;;;4995473;28;20054;-92
2021/07/28 01:26:26;;;;;;;5.88;3.25;;;;;;;;;;4994606;28;20140;-92
2021/07/28 01:28:54;;;;;;;5.45;3.47;;;;;;;;;;4996617;28;20050;-93
2021/07/28 01:31:23;;;;;;;7.10;3.17;;;;;;;;;;5005161;28;20050;-91
2021/07/28 01:33:51;;;;;;;5.28;3.13;;;;;;;;;;4994177;28;20572;-92
2021/07/28 01:36:20;;;;;;;10.18;3.47;;;;;;;;;;4994216;28;20069;-92
2021/07/28 01:38:49;;;;;;;7.75;3.95;;;;;;;;;;4996121;28;20046;-92
2021/07/28 01:41:21;;;;;;;5.05;3.40;;;;;;;;;;4994735;28;20086;-92
2021/07/28 01:43:49;;;;;;;6.28;3.17;;;;;;;;;;4992429;28;20092;-92
2021/07/28 01:46:18;;;;;;;7.13;3.42;;;;;;;;;;4996137;28;20061;-92
2021/07/28 01:48:47;;;;;;;7.13;3.50;;;;;;;;;;4994064;28;20053;-92
2021/07/28 01:51:15;;;;;;;8.98;3.45;;;;;;;;;;4994457;28;20058;-92
2021/07/28 01:53:44;;;;;;;5.45;3.22;;;;;;;;;;4994503;28;20427;-92
2021/07/28 01:56:14;;;;;;;5.68;3.30;;;;;;;;;;4993908;28;20077;-92
2021/07/28 01:58:52;;;;;;;6.35;3.05;;;;;;;;;;4997193;28;20054;-92
2021/07/28 02:01:21;;;;;;;6.07;3.33;;;;;;;;;;4998769;28;20046;-92
2021/07/28 02:03:49;;;;;;;5.82;3.03;;;;;;;;;;4994010;28;20058;-92
2021/07/28 02:06:18;;;;;;;5.80;3.40;;;;;;;;;;5007956;28;20129;-92
2021/07/28 02:08:47;;;;;;;5.82;3.40;;;;;;;;;;4992770;28;20453;-91
2021/07/28 02:11:15;;;;;;;8.45;3.22;;;;;;;;;;4994923;28;20062;-92
2021/07/28 02:13:45;;;;;;;10.02;3.47;;;;;;;;;;4994659;28;20190;-92
2021/07/28 02:16:15;;;;;;;7.20;3.53;;;;;;;;;;4984924;28;20049;-92
2021/07/28 02:18:43;;;;;;;9.45;2.78;;;;;;;;;;4997956;28;20077;-92
2021/07/28 02:21:12;;;;;;;6.32;3.03;;;;;;;;;;4998663;28;20123;-92
2021/07/28 02:23:43;;;;;;;3.65;2.47;;;;;;;;;;4998177;28;20042;-92
2021/07/28 02:26:11;;;;;;;4.28;2.28;;;;;;;;;;4997748;28;20050;-92
2021/07/28 02:28:39;;;;;;;3.95;2.70;;;;;;;;;;5008936;28;20081;-92
2021/07/28 02:31:09;;;;;;;6.13;2.88;;;;;;;;;;4999910;28;20054;-92
2021/07/28 02:33:37;;;;;;;4.88;2.90;;;;;;;;;;4998158;28;20129;-91
2021/07/28 02:36:06;;;;;;;4.85;2.90;;;;;;;;;;4996272;28;20077;-92
2021/07/28 02:38:35;;;;;;;5.85;3.15;;;;;;;;;;4997006;28;20459;-91
2021/07/28 02:41:03;;;;;;;5.82;2.72;;;;;;;;;;4998367;28;20093;-92
2021/07/28 02:43:32;;;;;;;6.45;2.58;;;;;;;;;;4998055;28;20081;-92
2021/07/28 02:46:00;;;;;;;5.18;2.65;;;;;;;;;;4998076;28;20172;-92
2021/07/28 02:48:30;;;;;;;5.20;2.70;;;;;;;;;;4997764;28;20054;-92
2021/07/28 02:50:59;;;;;;;7.25;2.78;;;;;;;;;;4997822;28;20153;-92
2021/07/28 02:53:27;;;;;;;5.38;2.72;;;;;;;;;;4994095;28;20062;-92
2021/07/28 02:56:05;;;;;;;4.43;2.55;;;;;;;;;;4997239;28;20141;-92
2021/07/28 02:58:33;;;;;;;4.65;2.42;;;;;;;;;;4974057;28;20066;-91
2021/07/28 03:01:02;;;;;;;5.53;2.88;;;;;;;;;;5002022;28;20073;-92
2021/07/28 03:03:32;;;;;;;4.20;2.80;;;;;;;;;;4997403;28;20061;-92
2021/07/28 03:06:02;;;;;;;3.53;2.67;;;;;;;;;;5001198;28;20088;-92
2021/07/28 03:08:30;;;;;;;4.57;3.15;;;;;;;;;;4997860;28;20054;-91
2021/07/28 03:11:03;;;;;;;4.75;2.55;;;;;;;;;;4996946;28;20062;-91
2021/07/28 03:13:33;;;;;;;5.18;2.47;;;;;;;;;;4996030;28;20046;-92
2021/07/28 03:16:06;;;;;;;5.97;2.53;;;;;;;;;;4995557;28;21254;-91
2021/07/28 03:18:35;;;;;;;5.20;2.72;;;;;;;;;;4997262;28;20078;-92
2021/07/28 03:21:04;;;;;;;4.47;2.58;;;;;;;;;;4997333;28;20049;-92
2021/07/28 03:23:32;;;;;;;6.75;2.92;;;;;;;;;;4997933;28;20073;-91
2021/07/28 03:26:01;;;;;;;6.55;2.85;;;;;;;;;;4995420;28;20123;-91
2021/07/28 03:28:31;;;;;;;5.35;2.72;;;;;;;;;;4996331;28;20073;-92
2021/07/28 03:31:00;;;;;;;6.95;3.08;;;;;;;;;;4996604;28;20054;-92
2021/07/28 03:33:28;;;;;;;5.47;2.83;;;;;;;;;;4999349;28;20145;-93
2021/07/28 03:35:58;;;;;;;4.78;2.47;;;;;;;;;;4996605;28;20114;-92
2021/07/28 03:38:27;;;;;;;4.90;2.85;;;;;;;;;;4986060;28;20149;-91
2021/07/28 03:40:55;;;;;;;4.75;2.53;;;;;;;;;;4986123;28;20141;-91
2021/07/28 03:43:34;;;;;;;6.65;2.78;;;;;;;;;;4996814;28;20134;-92
2021/07/28 03:46:02;;;;;;;4.30;2.30;;;;;;;;;;4976701;28;20062;-91
2021/07/28 03:48:31;;;;;;;5.47;2.50;;;;;;;;;;4996526;28;20505;-92
2021/07/28 03:51:02;;;;;;;6.00;2.72;;;;;;;;;;4996184;28;20046;-92
2021/07/28 03:53:32;;;;;;;5.40;3.10;;;;;;;;;;4996723;28;20127;-92
2021/07/28 03:56:00;;;;;;;4.65;2.70;;;;;;;;;;4996159;28;20081;-92
2021/07/28 03:58:29;;;;;;;4.35;2.50;;;;;;;;;;4996500;28;20062;-91
2021/07/28 04:00:57;;;;;;;4.57;2.42;;;;;;;;;;4993969;28;20078;-91
2021/07/28 04:03:26;;;;;;;6.90;2.50;;;;;;;;;;4987686;28;20058;-91
2021/07/28 04:05:55;;;;;;;4.65;2.72;;;;;;;;;;5009550;28;20061;-92
2021/07/28 04:08:24;;;;;;;5.10;2.38;;;;;;;;;;4996893;28;20066;-91
2021/07/28 04:10:55;;;;;;;3.55;2.50;;;;;;;;;;5007043;28;20082;-91
2021/07/28 04:13:23;;;;;;;5.63;2.92;;;;;;;;;;4996841;28;20077;-92
2021/07/28 04:15:52;;;;;;;6.18;2.65;;;;;;;;;;4995507;28;20105;-91
2021/07/28 04:18:20;;;;;;;4.22;2.13;;;;;;;;;;5002489;28;20053;-92
2021/07/28 04:20:50;;;;;;;4.97;2.33;;;;;;;;;;4995329;28;20137;-91
2021/07/28 04:23:18;;;;;;;6.10;2.40;;;;;;;;;;4995703;28;20042;-92
2021/07/28 04:28:59;;;;;;;5.15;2.35;;;;;;;;;;4974374;28;20054;-92
2021/07/28 04:34:10;;;;;;;2.83;2.05;;;;;;;;;;4997815;28;20490;-91
2021/07/28 04:36:47;;;;;;;3.35;2.22;;;;;;;;;;4995181;28;20141;-90
2021/07/28 04:42:15;;;;;;;6.45;2.58;;;;;;;;;;4989714;28;20097;-90
2021/07/28 04:45:00;;;;;;;3.20;2.15;;;;;;;;;;4994725;28;20050;-90
2021/07/28 04:47:43;;;;;;;3.55;2.20;;;;;;;;;;4959168;28;20074;-91
2021/07/28 04:53:07;;;;;;;3.72;2.40;;;;;;;;;;4989248;28;20054;-92
2021/07/28 04:55:35;;;;;;;5.82;2.67;;;;;;;;;;4992492;28;20124;-92
2021/07/28 04:58:03;;;;;;;4.95;2.75;;;;;;;;;;4981608;28;20046;-92
2021/07/28 05:03:16;;;;;;;6.05;2.50;;;;;;;;;;4995958;28;20148;-92
2021/07/28 05:05:49;;;;;;;4.70;2.92;;;;;;;;;;5003159;28;20066;-92
2021/07/28 05:08:18;;;;;;;6.55;2.28;;;;;;;;;;4989962;28;20074;-92
2021/07/28 05:10:48;;;;;;;4.78;2.83;;;;;;;;;;4992670;28;20054;-92
2021/07/28 05:13:17;;;;;;;4.20;2.72;;;;;;;;;;4992923;28;20055;-92
2021/07/28 05:15:47;;;;;;;4.00;2.28;;;;;;;;;;4992642;28;20124;-91
2021/07/28 05:18:15;;;;;;;6.60;2.25;;;;;;;;;;4994135;28;20054;-92
2021/07/28 05:20:43;;;;;;;4.40;2.63;;;;;;;;;;4993057;28;20132;-90
2021/07/28 05:23:28;;;;;;;3.80;2.72;;;;;;;;;;4991042;28;20054;-93
2021/07/28 05:29:21;;;;;;;7.30;2.40;;;;;;;;;;4975293;28;20129;-92
2021/07/28 05:41:30;;;;;;;4.97;3.00;;;;;;;;;;4996972;28;20054;-90
2021/07/28 05:47:09;;;;;;;10.63;3.33;;;;;;;;;;4995396;28;20046;-90
2021/07/28 05:49:40;;;;;;;8.18;4.10;;;;;;;;;;4998182;28;20038;-90
2021/07/28 05:52:09;;;;;;;5.18;3.22;;;;;;;;;;4977784;28;20130;-90
2021/07/28 05:54:50;;;;;;;6.18;3.50;;;;;;;;;;4992696;28;20105;-92
2021/07/28 05:57:18;;;;;;;11.00;4.13;;;;;;;;;;4992349;28;20050;-92
2021/07/28 05:59:47;;;;;;;6.10;3.78;;;;;;;;;;4994606;28;20526;-92
2021/07/28 06:02:15;;;;;;;5.97;3.40;;;;;;;;;;4996998;28;20077;-91
2021/07/28 06:04:49;;;;;;;8.85;3.80;;;;;;;;;;4995209;28;20073;-91
2021/07/28 06:07:18;;;;;;;6.78;4.03;;;;;;;;;;4990674;28;20074;-91
2021/07/28 06:09:46;;;;;;;5.20;3.35;;;;;;;;;;4990671;28;20153;-91
2021/07/28 06:12:16;;;;;;;6.18;3.58;;;;;;;;;;4989816;28;20058;-91
2021/07/28 06:14:45;;;;;;;5.57;3.38;;;;;;;;;;4989908;28;20070;-91
2021/07/28 06:17:14;;;;;;;6.15;3.60;;;;;;;;;;4991747;28;20085;-91
2021/07/28 06:19:44;;;;;;;7.03;3.70;;;;;;;;;;4992829;28;20129;-92
2021/07/28 06:22:48;;;;;;;6.07;3.58;;;;;;;;;;4995458;28;20514;-93
2021/07/28 06:25:16;;;;;;;7.80;3.47;;;;;;;;;;4994701;28;20038;-92
2021/07/28 06:27:53;;;;;;;8.02;3.70;;;;;;;;;;5000748;28;20069;-92
2021/07/28 06:30:37;;;;;;;10.18;3.53;;;;;;;;;;4972854;28;20125;-91
2021/07/28 06:33:09;;;;;;;8.88;3.45;;;;;;;;;;4991816;28;20089;-92
2021/07/28 06:35:58;;;;;;;4.80;2.97;;;;;;;;;;4950768;28;20051;-92
2021/07/28 06:38:39;;;;;;;6.40;3.33;;;;;;;;;;4948696;28;20055;-92
2021/07/28 06:41:07;;;;;;;8.27;3.40;;;;;;;;;;4949697;28;20059;-92
2021/07/28 06:43:35;;;;;;;6.38;3.90;;;;;;;;;;4949815;28;20063;-92
2021/07/28 06:46:04;;;;;;;5.47;3.47;;;;;;;;;;4951145;28;20134;-92
2021/07/28 06:51:22;;;;;;;5.82;3.55;;;;;;;;;;4950648;28;20066;-93
2021/07/28 06:54:10;;;;;;;7.65;3.70;;;;;;;;;;4962603;28;20097;-91
2021/07/28 06:56:39;;;;;;;10.30;3.65;;;;;;;;;;4951298;28;20077;-93
2021/07/28 06:59:07;;;;;;;7.72;4.25;;;;;;;;;;4949729;28;20058;-92
2021/07/28 07:01:37;;;;;;;8.48;4.53;;;;;;;;;;4985424;28;20490;-92
2021/07/28 07:04:06;;;;;;;6.10;3.92;;;;;;;;;;4996539;28;20058;-94
2021/07/28 07:06:35;;;;;;;7.30;3.38;;;;;;;;;;4998119;28;20062;-93
2021/07/28 07:09:05;;;;;;;5.05;3.00;;;;;;;;;;4997573;28;20058;-93
2021/07/28 07:11:34;;;;;;;4.95;3.13;;;;;;;;;;5004205;28;20126;-93
2021/07/28 07:14:03;;;;;;;7.70;3.40;;;;;;;;;;5004687;28;20153;-93
2021/07/28 07:16:31;;;;;;;7.60;3.78;;;;;;;;;;5000571;28;20119;-93
2021/07/28 07:19:03;;;;;;;5.88;3.45;;;;;;;;;;4999040;28;20050;-94
2021/07/28 07:21:31;;;;;;;4.93;3.30;;;;;;;;;;4996992;28;20136;-93
2021/07/28 07:24:00;;;;;;;4.88;3.00;;;;;;;;;;4993467;28;20066;-94
2021/07/28 07:26:30;;;;;;;7.57;3.10;;;;;;;;;;4995070;28;20050;-93
2021/07/28 07:28:58;;;;;;;6.35;3.90;;;;;;;;;;4996619;28;20648;-93
2021/07/28 07:31:50;;;;;;;6.78;3.75;;;;;;;;;;4989424;28;20524;-93
2021/07/28 07:34:19;;;;;;;7.60;3.63;;;;;;;;;;4991704;28;20057;-93
2021/07/28 07:36:48;;;;;;;8.57;3.58;;;;;;;;;;4984682;28;20149;-93
2021/07/28 07:39:19;;;;;;;8.68;4.28;;;;;;;;;;4996608;28;20050;-92
2021/07/28 07:41:53;;;;;;;7.28;4.43;;;;;;;;;;4990805;28;20050;-92
2021/07/28 07:44:36;;;;;;;7.72;3.45;;;;;;;;;;4991572;28;20048;-91
2021/07/28 07:47:09;;;;;;;7.90;4.03;;;;;;;;;;4993731;28;20427;-91
2021/07/28 07:49:50;;;;;;;7.47;4.25;;;;;;;;;;4992254;28;20061;-92
2021/07/28 07:52:19;;;;;;;8.63;4.20;;;;;;;;;;4995039;28;20482;-91
2021/07/28 07:55:02;;;;;;;8.80;4.43;;;;;;;;;;4990858;28;20046;-91
2021/07/28 07:57:35;;;;;;;5.68;3.60;;;;;;;;;;4993723;28;20056;-91
2021/07/28 08:00:04;;;;;;;5.53;3.45;;;;;;;;;;4993324;28;20116;-91
2021/07/28 08:02:46;;;;;;;6.63;4.13;;;;;;;;;;4993728;28;20073;-91
2021/07/28 08:05:15;;;;;;;8.32;3.95;;;;;;;;;;4992586;28;20054;-92
2021/07/28 08:10:28;;;;;;;6.95;4.32;;;;;;;;;;4989848;28;20054;-92
2021/07/28 08:12:59;;;;;;;12.00;3.95;;;;;;;;;;4992792;28;20050;-91
2021/07/28 08:15:45;;;;;;;5.97;3.83;;;;;;;;;;4990261;28;20679;-93
2021/07/28 08:18:14;;;;;;;6.65;3.72;;;;;;;;;;4996988;28;20061;-93
2021/07/28 08:21:12;;;;;;;8.27;4.43;;;;;;;;;;4976109;28;20058;-93
2021/07/28 08:23:41;;;;;;;8.13;4.03;;;;;;;;;;4989402;28;20514;-93
2021/07/28 08:26:21;;;;;;;7.10;4.03;;;;;;;;;;5001003;28;20413;-94
2021/07/28 08:29:05;;;;;;;7.30;4.63;;;;;;;;;;4972454;28;20054;-94
2021/07/28 08:31:34;;;;;;;5.78;3.88;;;;;;;;;;4983131;28;20053;-93
2021/07/28 08:36:46;;;;;;;7.93;4.57;;;;;;;;;;4993095;28;20130;-95
2021/07/28 08:39:14;;;;;;;7.78;4.28;;;;;;;;;;5002357;28;20050;-94
2021/07/28 08:41:47;;;;;;;6.07;3.63;;;;;;;;;;5006280;28;20053;-95
2021/07/28 08:44:21;;;;;;;11.13;4.47;;;;;;;;;;5006304;28;20046;-96
2021/07/28 08:46:55;;;;;;;8.23;4.40;;;;;;;;;;5004339;28;20120;-95
2021/07/28 08:49:24;;;;;;;9.80;4.90;;;;;;;;;;4997835;28;20451;-95
2021/07/28 08:51:52;;;;;;;8.68;4.57;;;;;;;;;;4998704;28;20074;-96
2021/07/28 08:54:21;;;;;;;8.23;5.07;;;;;;;;;;4996359;28;20128;-95
2021/07/28 08:56:50;;;;;;;9.93;4.70;;;;;;;;;;4994172;28;20050;-95
2021/07/28 08:59:27;;;;;;;7.43;4.15;;;;;;;;;;4998755;28;20112;-95
2021/07/28 09:01:56;;;;;;;6.93;4.63;;;;;;;;;;5015611;28;20107;-94
2021/07/28 09:04:25;;;;;;;10.80;5.22;;;;;;;;;;5020239;28;20137;-93
2021/07/28 09:06:53;;;;;;;7.32;4.40;;;;;;;;;;4994742;28;20050;-93
2021/07/28 09:09:22;;;;;;;7.75;4.07;;;;;;;;;;4995494;28;20074;-93
2021/07/28 09:18:25;;;;;;;10.07;5.78;;;;;;;;;;4995014;28;20058;-93
2021/07/28 09:20:54;;;;;;;10.73;5.63;;;;;;;;;;4989637;28;20066;-93
2021/07/28 09:26:28;;;;;;;10.07;5.20;;;;;;;;;;4995085;28;20093;-93
2021/07/28 09:29:02;;;;;;;7.68;4.60;;;;;;;;;;4946636;28;20565;-93
2021/07/28 09:31:34;;;;;;;11.88;5.03;;;;;;;;;;4994877;28;20061;-94
2021/07/28 09:34:08;;;;;;;10.25;5.35;;;;;;;;;;5000666;28;20054;-94
2021/07/28 09:36:36;;;;;;;9.85;4.97;;;;;;;;;;4998935;28;20058;-94
2021/07/28 09:39:05;;;;;;;11.10;5.75;;;;;;;;;;4996934;28;20433;-94
2021/07/28 09:41:49;;;;;;;10.68;5.38;;;;;;;;;;4987240;28;20117;-94
2021/07/28 09:44:25;;;;;;;11.52;5.85;;;;;;;;;;4996090;28;20061;-93
2021/07/28 09:47:08;;;;;;;12.18;6.30;;;;;;;;;;4998500;28;20054;-95
2021/07/28 09:49:36;;;;;;;11.80;5.93;;;;;;;;;;5002776;28;20340;-93
2021/07/28 09:52:20;;;;;;;9.93;5.63;;;;;;;;;;4995166;28;20458;-92
2021/07/28 09:54:52;;;;;;;13.10;5.90;;;;;;;;;;4984276;28;20086;-94
2021/07/28 09:57:28;;;;;;;13.80;6.10;;;;;;;;;;4985269;28;20038;-95
2021/07/28 10:00:03;;;;;;;10.20;5.00;;;;;;;;;;5002871;28;20046;-95
2021/07/28 10:02:34;;;;;;;8.65;5.00;;;;;;;;;;5000600;28;20486;-94
2021/07/28 10:05:05;;;;;;;9.38;4.55;;;;;;;;;;4987644;28;20046;-93
2021/07/28 10:07:42;;;;;;;9.68;4.63;;;;;;;;;;4996778;28;20076;-94
2021/07/28 10:10:12;;;;;;;5.70;3.78;;;;;;;;;;5003049;28;20054;-94
2021/07/28 10:12:42;;;;;;;8.55;4.22;;;;;;;;;;5003802;28;20113;-93
2021/07/28 10:15:20;;;;;;;6.60;3.60;;;;;;;;;;5000549;28;20118;-94
2021/07/28 10:17:50;;;;;;;7.93;3.97;;;;;;;;;;4998739;28;20054;-94
2021/07/28 10:20:19;;;;;;;7.93;4.15;;;;;;;;;;4998243;28;20061;-94
2021/07/28 10:25:21;;;;;;;9.02;4.20;;;;;;;;;;4950418;28;20047;-68
2021/07/28 10:27:51;;;;;;;7.68;4.25;;;;;;;;;;4959695;28;20085;-68
2021/07/28 10:30:21;;;;;;;7.20;4.35;;;;;;;;;;4951437;28;20047;-68
2021/07/28 10:32:51;;;;;;;6.93;3.67;;;;;;;;;;4958424;28;20153;-67
2021/07/28 10:35:23;;;;;;;6.80;3.75;;;;;;;;;;4962105;28;20090;-67
2021/07/28 10:37:52;;;;;;;5.72;3.40;;;;;;;;;;4960748;28;20058;-68
2021/07/28 10:40:39;;;;;;;5.78;3.72;;;;;;;;;;4961418;28;20498;-68
2021/07/28 10:43:07;;;;;;;8.00;3.45;;;;;;;;;;4951959;28;20055;-67
2021/07/28 10:45:56;;;;;;;7.03;3.38;;;;;;;;;;4954950;28;20089;-67
2021/07/28 10:48:43;;;;;;;9.07;4.07;;;;;;;;;;4942186;29;20451;-67
2021/07/28 10:51:33;;;;;;;8.20;4.07;;;;;;;;;;4959325;28;20047;-64
2021/07/28 10:54:01;;;;;;;11.13;4.50;;;;;;;;;;4958611;28;20051;-63
2021/07/28 10:56:30;;;;;;;8.73;4.22;;;;;;;;;;4959089;28;20070;-63
2021/07/28 10:58:58;;;;;;;10.02;4.40;;;;;;;;;;4973038;28;20181;-63
2021/07/28 11:01:52;;;;;;;11.38;5.25;;;;;;;;;;4969850;28;20145;-63
2021/07/28 11:04:25;;;;;;;8.50;4.10;;;;;;;;;;4953227;28;20054;-63
2021/07/28 11:06:55;;;;;;;7.85;3.97;;;;;;;;;;4954219;29;20058;-63
2021/07/28 11:09:25;;;;;;;10.57;4.53;;;;;;;;;;4955103;29;20458;-63
2021/07/28 11:11:53;;;;;;;10.30;4.25;;;;;;;;;;4954172;29;20039;-63
2021/07/28 11:14:23;;;;;;;5.72;3.65;;;;;;;;;;4953556;28;20079;-63
2021/07/28 11:16:53;;;;;;;8.45;3.85;;;;;;;;;;4949279;29;20487;-63
2021/07/28 11:19:21;;;;;;;8.30;3.80;;;;;;;;;;4952717;28;20043;-63
2021/07/28 11:21:50;;;;;;;7.57;3.67;;;;;;;;;;4951411;29;20070;-63
2021/07/28 11:24:20;;;;;;;6.20;3.60;;;;;;;;;;4962030;28;20105;-63
2021/07/28 11:26:49;;;;;;;6.45;3.88;;;;;;;;;;4965108;28;20069;-63
2021/07/28 11:29:19;;;;;;;7.28;3.80;;;;;;;;;;4969105;28;20139;-63
2021/07/28 11:31:52;;;;;;;6.10;3.80;;;;;;;;;;4959376;28;20043;-63
2021/07/28 11:34:55;;;;;;;9.18;2.80;;;;;;;;;;4968837;28;20658;-63
2021/07/28 11:37:23;;;;;;;7.10;3.08;;;;;;;;;;4969549;28;20046;-63
2021/07/28 11:39:53;;;;;;;6.07;3.60;;;;;;;;;;4969339;28;20080;-63
2021/07/28 11:42:27;;;;;;;7.35;3.75;;;;;;;;;;4963546;28;20062;-63
2021/07/28 11:44:56;;;;;;;5.57;3.50;;;;;;;;;;4968361;28;20513;-63
2021/07/28 11:47:25;;;;;;;6.38;3.97;;;;;;;;;;4970296;28;20047;-63
2021/07/28 11:50:01;;;;;;;7.00;3.60;;;;;;;;;;4968374;28;20142;-63
2021/07/28 11:52:31;;;;;;;5.90;3.55;;;;;;;;;;4957402;28;20384;-65
2021/07/28 11:55:01;;;;;;;5.85;3.30;;;;;;;;;;4968168;28;20058;-65
2021/07/28 11:57:29;;;;;;;5.85;3.63;;;;;;;;;;4969686;28;20578;-65
2021/07/28 12:00:12;;;;;;;6.20;3.50;;;;;;;;;;4966901;28;20113;-65
2021/07/28 12:02:41;;;;;;;6.53;3.70;;;;;;;;;;4965462;28;20050;-65
2021/07/28 12:05:10;;;;;;;5.65;3.65;;;;;;;;;;4968390;28;20058;-65
2021/07/28 12:07:39;;;;;;;8.82;3.88;;;;;;;;;;4963440;28;20491;-65
2021/07/28 12:10:09;;;;;;;6.05;3.67;;;;;;;;;;4969532;28;20090;-65
2021/07/28 12:12:38;;;;;;;5.57;3.17;;;;;;;;;;4967934;28;20078;-65
2021/07/28 12:15:10;;;;;;;6.85;3.63;;;;;;;;;;4967619;28;20499;-65
2021/07/28 12:17:49;;;;;;;5.82;3.58;;;;;;;;;;4956376;28;20138;-65
2021/07/28 12:20:17;;;;;;;5.97;3.50;;;;;;;;;;4966249;28;20054;-66
2021/07/28 12:22:47;;;;;;;4.85;3.33;;;;;;;;;;4968684;28;20055;-66
2021/07/28 12:25:18;;;;;;;6.07;3.20;;;;;;;;;;4966821;28;20050;-66
2021/07/28 12:28:04;;;;;;;5.38;3.20;;;;;;;;;;4966026;28;20053;-66
2021/07/28 12:30:33;;;;;;;6.30;3.30;;;;;;;;;;4953690;28;20090;-65
2021/07/28 12:33:03;;;;;;;5.28;3.22;;;;;;;;;;4965111;28;20054;-65
2021/07/28 12:35:41;;;;;;;5.90;3.40;;;;;;;;;;4967442;28;20057;-65
2021/07/28 12:38:11;;;;;;;8.50;3.22;;;;;;;;;;4967868;28;20051;-65
2021/07/28 12:40:42;;;;;;;6.68;3.30;;;;;;;;;;4967746;28;20388;-65
2021/07/28 12:43:11;;;;;;;6.22;3.35;;;;;;;;;;4967715;28;20042;-65
2021/07/28 12:45:39;;;;;;;6.75;3.22;;;;;;;;;;4961622;28;20055;-65
2021/07/28 12:48:08;;;;;;;13.75;4.45;;;;;;;;;;4968419;28;20047;-65
2021/07/28 12:50:38;;;;;;;7.22;3.45;;;;;;;;;;4967311;28;20061;-65
2021/07/28 12:53:07;;;;;;;14.40;4.15;;;;;;;;;;4966826;28;20533;-65
2021/07/28 12:55:36;;;;;;;6.68;3.47;;;;;;;;;;4967924;28;20059;-65
2021/07/28 12:58:06;;;;;;;5.50;3.95;;;;;;;;;;4961511;28;20058;-65
2021/07/28 13:00:36;;;;;;;5.78;3.58;;;;;;;;;;4967926;28;20096;-65
2021/07/28 13:03:06;;;;;;;6.80;3.88;;;;;;;;;;4968635;28;20764;-65
2021/07/28 13:05:38;;;;;;;167.93;17.63;;;;;;;;;;4969215;28;20411;-65
2021/07/28 13:08:08;;;;;;;348.13;242.23;;;;;;;;;;4968623;28;20461;-65
2021/07/28 13:10:38;;;;;;;6.50;3.25;;;;;;;;;;4968511;28;20053;-65
2021/07/28 13:13:09;;;;;;;5.22;3.13;;;;;;;;;;4960577;28;20113;-65
2021/07/28 13:15:39;;;;;;;22.13;3.63;;;;;;;;;;4967508;28;20059;-65
2021/07/28 13:18:08;;;;;;;11.52;4.55;;;;;;;;;;4967873;28;20057;-65
2021/07/28 13:20:37;;;;;;;6.68;3.13;;;;;;;;;;4966272;28;20380;-65
2021/07/28 13:23:06;;;;;;;4.78;2.95;;;;;;;;;;4965821;28;20050;-66
2021/07/28 13:25:34;;;;;;;6.60;3.30;;;;;;;;;;4955950;28;20066;-65
2021/07/28 13:28:03;;;;;;;5.57;3.33;;;;;;;;;;4962274;28;20050;-66
2021/07/28 13:30:33;;;;;;;6.45;3.72;;;;;;;;;;4967084;28;20063;-66
2021/07/28 13:33:02;;;;;;;3.90;3.03;;;;;;;;;;4962281;28;20395;-66
2021/07/28 13:35:31;;;;;;;5.97;3.75;;;;;;;;;;4967084;28;20129;-66
2021/07/28 13:37:59;;;;;;;7.38;3.60;;;;;;;;;;4975085;28;20063;-66
2021/07/28 13:40:28;;;;;;;8.07;3.47;;;;;;;;;;4975815;28;20105;-66
2021/07/28 13:42:56;;;;;;;5.97;4.32;;;;;;;;;;4958949;28;20042;-66
2021/07/28 13:45:25;;;;;;;8.77;4.10;;;;;;;;;;4966137;28;20077;-66
2021/07/28 13:47:55;;;;;;;6.82;4.07;;;;;;;;;;4967015;28;20442;-66
2021/07/28 13:50:23;;;;;;;8.27;4.00;;;;;;;;;;4966776;28;20109;-66
2021/07/28 13:52:52;;;;;;;7.57;3.60;;;;;;;;;;4966396;28;20050;-66
2021/07/28 13:55:20;;;;;;;5.38;3.58;;;;;;;;;;4961652;28;20693;-66
2021/07/28 13:57:48;;;;;;;17.20;3.95;;;;;;;;;;4967265;28;20558;-66
2021/07/28 14:00:18;;;;;;;14.30;3.05;;;;;;;;;;4966429;28;20099;-66
2021/07/28 14:02:47;;;;;;;7.72;3.53;;;;;;;;;;4966448;28;20463;-66
2021/07/28 14:05:17;;;;;;;6.20;3.22;;;;;;;;;;4966179;28;20383;-66
2021/07/28 14:07:46;;;;;;;7.85;3.47;;;;;;;;;;4958569;28;20078;-66
2021/07/28 14:10:15;;;;;;;7.53;3.70;;;;;;;;;;4963832;28;20114;-66
2021/07/28 14:12:44;;;;;;;5.80;3.58;;;;;;;;;;4967587;28;20062;-66
2021/07/28 14:15:13;;;;;;;7.93;3.20;;;;;;;;;;4970172;28;20594;-66
2021/07/28 14:17:42;;;;;;;7.03;3.35;;;;;;;;;;4961965;28;20082;-66
2021/07/28 14:20:11;;;;;;;8.50;3.70;;;;;;;;;;4964641;28;20320;-66
2021/07/28 14:22:41;;;;;;;8.70;3.40;;;;;;;;;;4970678;28;20058;-66
2021/07/28 14:25:15;;;;;;;6.65;2.70;;;;;;;;;;4961136;28;20069;-66
2021/07/28 14:27:44;;;;;;;6.35;3.53;;;;;;;;;;4970990;28;20063;-66
2021/07/28 14:30:13;;;;;;;8.00;3.13;;;;;;;;;;4969698;28;20082;-66
2021/07/28 14:32:41;;;;;;;9.48;3.33;;;;;;;;;;4968867;28;20050;-66
2021/07/28 14:35:11;;;;;;;5.40;3.03;;;;;;;;;;4965621;28;20074;-66
2021/07/28 14:37:42;;;;;;;6.28;3.30;;;;;;;;;;4964985;28;20142;-66
2021/07/28 14:40:11;;;;;;;5.65;3.33;;;;;;;;;;4966009;28;20046;-66
2021/07/28 14:42:40;;;;;;;6.93;3.72;;;;;;;;;;4966801;28;20142;-66
2021/07/28 14:45:09;;;;;;;6.45;3.30;;;;;;;;;;4968217;28;20046;-66
2021/07/28 14:47:37;;;;;;;6.60;3.75;;;;;;;;;;4968385;28;20533;-70
2021/07/28 14:50:07;;;;;;;6.65;3.40;;;;;;;;;;4969590;28;20113;-70
2021/07/28 14:52:35;;;;;;;5.60;3.17;;;;;;;;;;4971610;28;20086;-70
2021/07/28 14:55:05;;;;;;;13.40;3.13;;;;;;;;;;4971036;28;20062;-70
2021/07/28 14:57:34;;;;;;;8.60;2.63;;;;;;;;;;4971268;28;20106;-70
2021/07/28 15:00:03;;;;;;;5.97;3.47;;;;;;;;;;4961764;28;20058;-70
2021/07/28 15:02:32;;;;;;;4.93;3.15;;;;;;;;;;4971196;28;20047;-71
2021/07/28 15:05:02;;;;;;;4.90;2.83;;;;;;;;;;4971138;28;20053;-70
2021/07/28 15:07:31;;;;;;;4.22;2.63;;;;;;;;;;4971711;28;20088;-70
2021/07/28 15:10:00;;;;;;;4.85;2.75;;;;;;;;;;4971442;28;20113;-70
2021/07/28 15:12:31;;;;;;;6.45;3.58;;;;;;;;;;4974450;28;20411;-70
2021/07/28 15:15:01;;;;;;;5.65;3.28;;;;;;;;;;4974010;28;20057;-70
2021/07/28 15:17:29;;;;;;;6.97;3.75;;;;;;;;;;4974232;28;20047;-70
2021/07/28 15:19:58;;;;;;;7.22;3.72;;;;;;;;;;4974538;28;20484;-70
2021/07/28 15:22:26;;;;;;;7.90;3.42;;;;;;;;;;4973688;28;20046;-69
2021/07/28 15:24:55;;;;;;;5.90;3.15;;;;;;;;;;4975956;28;20047;-69
2021/07/28 15:27:24;;;;;;;5.50;3.00;;;;;;;;;;4973692;28;20133;-68
2021/07/28 15:29:54;;;;;;;4.85;3.15;;;;;;;;;;4974682;28;20047;-67
2021/07/28 15:32:25;;;;;;;4.43;2.95;;;;;;;;;;4973738;28;20051;-68
2021/07/28 15:34:55;;;;;;;4.97;3.33;;;;;;;;;;4966964;28;20039;-67
2021/07/28 15:37:23;;;;;;;5.95;3.25;;;;;;;;;;4973757;28;20161;-66
2021/07/28 15:40:03;;;;;;;4.22;3.03;;;;;;;;;;4972415;28;20043;-66
2021/07/28 15:42:32;;;;;;;4.47;2.80;;;;;;;;;;4972996;28;20047;-66
2021/07/28 15:45:03;;;;;;;4.40;2.53;;;;;;;;;;4971363;28;20430;-66
2021/07/28 15:47:31;;;;;;;4.63;2.70;;;;;;;;;;4973304;28;20101;-67
2021/07/28 15:50:04;;;;;;;5.85;2.85;;;;;;;;;;4969525;28;20485;-67
2021/07/28 15:52:32;;;;;;;4.53;2.65;;;;;;;;;;4966501;28;20411;-68
2021/07/28 15:55:01;;;;;;;2.88;2.25;;;;;;;;;;4959605;28;20134;-68
2021/07/28 15:57:29;;;;;;;3.75;2.50;;;;;;;;;;4971839;28;20050;-67